createdAt,value
2023-02-25T00:03:01.848Z,98.80
2023-02-25T00:07:03.893Z,99.30
2023-02-25T00:11:07.367Z,98.70
2023-02-25T00:15:10.326Z,98.80
2023-02-25T00:19:12.259Z,99.00
2023-02-25T00:23:14.034Z,98.80
2023-02-25T00:27:15.850Z,98.80
2023-02-25T00:31:22.138Z,99.10
2023-02-25T00:35:24.190Z,98.70
2023-02-25T00:39:41.806Z,98.10
2023-02-25T00:43:48.590Z,98.80
2023-02-25T00:47:51.126Z,98.50
2023-02-25T00:51:53.197Z,98.60
2023-02-25T00:56:02.127Z,99.90
2023-02-25T01:00:10.157Z,99.10
2023-02-25T01:04:12.527Z,99.60
2023-02-25T01:08:15.343Z,99.90
2023-02-25T01:12:17.088Z,99.90
2023-02-25T01:16:21.759Z,99.50
2023-02-25T01:20:24.419Z,98.60
2023-02-25T01:24:29.631Z,99.20
2023-02-25T01:28:31.520Z,98.90
2023-02-25T01:32:33.513Z,99.50
2023-02-25T01:36:35.628Z,99.10
2023-02-25T01:40:37.929Z,98.80
2023-02-25T01:45:18.113Z,98.70
2023-02-25T01:49:34.315Z,99.00
2023-02-25T01:53:44.758Z,98.40
2023-02-25T01:57:46.923Z,97.90
2023-02-25T02:01:49.770Z,98.00
2023-02-25T02:06:06.412Z,99.10
2023-02-25T02:10:08.944Z,98.70
2023-02-25T02:14:15.591Z,99.70
2023-02-25T02:18:18.176Z,98.90
2023-02-25T02:22:28.773Z,98.80
2023-02-25T02:26:39.906Z,98.60
2023-02-25T02:30:50.634Z,98.40
2023-02-25T02:35:21.081Z,98.10
2023-02-25T02:39:55.414Z,98.70
2023-02-25T02:44:23.923Z,99.00
2023-02-25T02:48:49.006Z,99.20
2023-02-25T02:52:53.295Z,98.50
2023-02-25T02:56:58.353Z,98.10
2023-02-25T03:01:06.036Z,98.80
2023-02-25T03:05:11.661Z,98.60
2023-02-25T03:09:20.896Z,98.20
2023-02-25T03:13:24.581Z,99.20
2023-02-25T03:17:31.064Z,98.80
2023-02-25T03:22:06.688Z,98.50
2023-02-25T03:26:28.312Z,98.40
2023-02-25T03:30:46.908Z,98.40
2023-02-25T03:34:51.349Z,97.30
2023-02-25T03:38:58.040Z,98.80
2023-02-25T03:43:09.981Z,97.70
2023-02-25T03:47:13.795Z,96.60
2023-02-25T03:51:23.571Z,97.10
2023-02-25T03:55:26.038Z,97.60
2023-02-25T03:59:28.238Z,97.10
2023-02-25T04:03:30.218Z,97.40
2023-02-25T04:07:32.324Z,96.50
2023-02-25T04:11:34.303Z,96.10
2023-02-25T04:15:37.707Z,95.60
2023-02-25T04:19:39.657Z,96.50
2023-02-25T04:23:41.499Z,96.70
2023-02-25T04:27:43.332Z,96.90
2023-02-25T04:31:45.560Z,97.00
2023-02-25T04:35:47.466Z,96.50
2023-02-25T04:39:49.279Z,97.10
2023-02-25T04:43:51.048Z,98.30
2023-02-25T04:47:54.181Z,96.80
2023-02-25T04:51:55.932Z,97.50
2023-02-25T04:56:03.559Z,98.10
2023-02-25T05:00:09.089Z,97.20
2023-02-25T05:04:11.232Z,97.00
2023-02-25T05:08:13.055Z,97.40
2023-02-25T05:12:14.865Z,97.40
2023-02-25T05:16:17.621Z,96.90
2023-02-25T05:20:19.839Z,96.20
2023-02-25T05:24:23.448Z,95.80
2023-02-25T05:28:25.574Z,96.10
2023-02-25T05:32:28.034Z,95.40
2023-02-25T05:36:30.367Z,95.20
2023-02-25T05:40:32.808Z,95.20
2023-02-25T05:44:34.683Z,95.00
2023-02-25T05:48:36.488Z,95.40
2023-02-25T05:52:38.307Z,95.30
2023-02-25T05:56:40.074Z,95.50
2023-02-25T06:00:41.883Z,95.10
2023-02-25T06:04:43.690Z,95.60
2023-02-25T06:08:45.460Z,95.60
2023-02-25T06:12:47.215Z,95.30
2023-02-25T06:16:50.631Z,95.80
2023-02-25T06:20:52.400Z,95.90
2023-02-25T06:24:54.157Z,95.70
2023-02-25T06:28:56.780Z,95.40
2023-02-25T06:32:59.027Z,95.40
2023-02-25T06:37:00.963Z,95.60
2023-02-25T06:41:14.056Z,95.90
2023-02-25T06:45:16.469Z,95.50
2023-02-25T06:49:19.104Z,95.30
2023-02-25T06:53:22.591Z,94.80
2023-02-25T06:57:24.402Z,94.30
2023-02-25T07:01:26.646Z,93.80
2023-02-25T07:05:28.790Z,93.50
2023-02-25T07:09:30.598Z,93.70
2023-02-25T07:13:32.368Z,94.00
2023-02-25T07:17:34.179Z,94.10
2023-02-25T07:21:36.035Z,93.70
2023-02-25T07:25:38.744Z,94.00
2023-02-25T07:29:41.279Z,93.80
2023-02-25T07:33:43.707Z,93.70
2023-02-25T07:37:45.563Z,93.70
2023-02-25T07:41:48.376Z,93.70
2023-02-25T07:45:57.539Z,93.70
2023-02-25T07:49:59.563Z,93.50
2023-02-25T07:54:01.467Z,93.30
2023-02-25T07:58:04.488Z,92.40
2023-02-25T08:02:10.296Z,91.80
2023-02-25T08:06:12.285Z,91.90
2023-02-25T08:10:14.055Z,91.30
2023-02-25T08:14:15.909Z,91.10
2023-02-25T08:18:17.744Z,91.30
2023-02-25T08:22:19.557Z,90.90
2023-02-25T08:26:22.705Z,91.20
2023-02-25T08:30:24.547Z,91.20
2023-02-25T08:34:26.358Z,91.40
2023-02-25T08:38:28.560Z,91.70
2023-02-25T08:42:31.320Z,91.10
2023-02-25T08:46:33.600Z,92.40
2023-02-25T08:50:35.691Z,93.00
2023-02-25T08:54:38.736Z,92.50
2023-02-25T08:58:40.681Z,93.30
2023-02-25T09:02:43.243Z,93.10
2023-02-25T09:06:47.457Z,93.00
2023-02-25T09:10:50.792Z,92.30
2023-02-25T09:14:52.996Z,93.10
2023-02-25T09:18:54.871Z,93.40
2023-02-25T09:22:57.430Z,92.30
2023-02-25T09:27:08.053Z,93.40
2023-02-25T09:31:10.226Z,92.80
2023-02-25T09:35:12.554Z,92.70
2023-02-25T09:39:14.375Z,92.60
2023-02-25T09:43:23.376Z,92.40
2023-02-25T09:47:58.783Z,91.50
2023-02-25T09:52:56.101Z,92.00
2023-02-25T09:57:01.764Z,92.10
2023-02-25T10:01:27.115Z,91.50
2023-02-25T10:05:55.365Z,90.00
2023-02-25T10:10:19.824Z,90.60
2023-02-25T10:14:33.514Z,89.00
2023-02-25T10:19:21.184Z,88.00
2023-02-25T10:23:28.916Z,89.90
2023-02-25T10:27:37.371Z,91.00
2023-02-25T10:31:43.964Z,91.80
2023-02-25T10:35:45.926Z,88.00
2023-02-25T10:39:48.682Z,88.50
2023-02-25T10:43:51.668Z,90.00
2023-02-25T10:48:06.577Z,90.20
2023-02-25T10:52:18.708Z,90.10
2023-02-25T10:56:21.415Z,90.90
2023-02-25T11:00:28.929Z,87.90
2023-02-25T11:04:39.424Z,87.70
2023-02-25T11:08:41.478Z,85.90
2023-02-25T11:12:57.047Z,86.50
2023-02-25T11:17:22.147Z,84.90
2023-02-25T11:21:36.538Z,84.20
2023-02-25T11:25:39.804Z,85.70
2023-02-25T11:29:43.776Z,86.70
2023-02-25T11:33:51.855Z,84.20
2023-02-25T11:37:55.481Z,86.30
2023-02-25T11:42:18.516Z,82.90
2023-02-25T11:46:24.643Z,84.70
2023-02-25T11:50:41.854Z,84.30
2023-02-25T11:55:03.915Z,85.30
2023-02-25T11:59:37.729Z,83.50
2023-02-25T12:03:52.125Z,86.10
2023-02-25T12:08:12.304Z,84.00
2023-02-25T12:12:48.423Z,84.70
2023-02-25T12:17:29.712Z,83.20
2023-02-25T12:21:57.466Z,82.10
2023-02-25T12:26:36.813Z,83.50
2023-02-25T12:30:57.275Z,82.20
2023-02-25T12:35:15.400Z,82.10
2023-02-25T12:39:23.337Z,83.30
2023-02-25T12:43:46.737Z,83.90
2023-02-25T12:48:07.229Z,84.30
2023-02-25T12:52:30.222Z,85.60
2023-02-25T12:56:53.234Z,86.00
2023-02-25T13:01:18.905Z,87.70
2023-02-25T13:05:37.509Z,88.80
2023-02-25T13:09:52.972Z,88.80
2023-02-25T13:14:14.105Z,89.20
2023-02-25T13:18:50.849Z,89.10
2023-02-25T13:23:01.483Z,89.00
2023-02-25T13:27:43.591Z,89.30
2023-02-25T13:32:24.109Z,90.40
2023-02-25T13:36:32.123Z,90.40
2023-02-25T13:40:42.722Z,90.20
2023-02-25T13:45:06.560Z,90.00
2023-02-25T13:49:30.100Z,89.50
2023-02-25T13:53:58.976Z,90.10
2023-02-25T13:58:33.129Z,90.00
2023-02-25T14:02:49.779Z,90.40
2023-02-25T14:07:24.705Z,89.50
2023-02-25T14:12:06.334Z,90.20
2023-02-25T14:16:13.287Z,89.10
2023-02-25T14:20:30.581Z,90.00
2023-02-25T14:24:46.348Z,90.50
2023-02-25T14:28:57.750Z,90.00
2023-02-25T14:33:33.668Z,89.20
2023-02-25T14:38:07.701Z,89.80
2023-02-25T14:42:15.197Z,88.90
2023-02-25T14:46:25.878Z,87.50
2023-02-25T14:50:36.634Z,88.30
2023-02-25T14:54:41.173Z,88.20
2023-02-25T14:58:52.124Z,87.50
2023-02-25T15:03:29.639Z,87.90
2023-02-25T15:07:53.728Z,86.90
2023-02-25T15:12:01.831Z,86.10
2023-02-25T15:16:25.156Z,86.50
2023-02-25T15:20:27.320Z,87.90
2023-02-25T15:24:36.106Z,88.50
2023-02-25T15:28:40.800Z,86.30
2023-02-25T15:33:13.708Z,85.30
2023-02-25T15:37:31.599Z,85.80
2023-02-25T15:41:38.721Z,85.40
2023-02-25T15:46:13.805Z,84.80
2023-02-25T15:50:41.879Z,85.70
2023-02-25T15:54:48.244Z,87.20
2023-02-25T15:58:57.268Z,87.30
2023-02-25T16:03:03.664Z,87.50
2023-02-25T16:07:08.396Z,87.20
2023-02-25T16:11:29.977Z,86.90
2023-02-25T16:15:40.269Z,86.10
2023-02-25T16:19:43.281Z,86.60
2023-02-25T16:23:45.260Z,91.10
2023-02-25T16:27:52.468Z,95.60
2023-02-25T16:32:21.147Z,97.20
2023-02-25T16:36:31.728Z,97.10
2023-02-25T16:40:39.771Z,98.10
2023-02-25T16:44:44.878Z,99.90
2023-02-25T16:48:51.265Z,99.90
2023-02-25T16:52:54.156Z,98.90
2023-02-25T16:56:59.877Z,99.90
2023-02-25T17:01:03.936Z,99.90
2023-02-25T17:05:21.371Z,99.90
2023-02-25T17:09:24.672Z,99.90
2023-02-25T17:13:33.423Z,99.90
2023-02-25T17:17:39.835Z,99.90
2023-02-25T17:21:44.326Z,99.90
2023-02-25T17:25:48.851Z,99.50
2023-02-25T17:29:50.980Z,99.20
2023-02-25T17:33:53.912Z,99.20
2023-02-25T17:37:57.076Z,98.60
2023-02-25T17:41:58.854Z,97.90
2023-02-25T17:46:38.261Z,97.90
2023-02-25T17:50:40.544Z,98.20
2023-02-25T17:54:47.157Z,97.80
2023-02-25T17:58:49.565Z,98.10
2023-02-25T18:03:08.128Z,98.30
2023-02-25T18:07:20.594Z,98.00
2023-02-25T18:11:37.609Z,98.20
2023-02-25T18:15:40.284Z,98.30
2023-02-25T18:19:45.948Z,97.80
2023-02-25T18:23:50.750Z,97.60
2023-02-25T18:27:54.538Z,99.30
2023-02-25T18:31:56.385Z,99.90
2023-02-25T18:35:58.577Z,99.90
2023-02-25T18:40:00.701Z,99.90
2023-02-25T18:44:02.583Z,99.90
2023-02-25T18:48:04.448Z,99.90
2023-02-25T18:52:20.441Z,99.90
2023-02-25T18:56:22.514Z,99.90
2023-02-25T19:00:29.382Z,99.90
2023-02-25T19:04:31.245Z,99.80
2023-02-25T19:08:33.366Z,99.10
2023-02-25T19:12:35.713Z,99.00
2023-02-25T19:16:38.065Z,98.10
2023-02-25T19:20:42.377Z,97.30
2023-02-25T19:24:47.791Z,98.00
2023-02-25T19:28:49.735Z,97.50
2023-02-25T19:32:51.956Z,97.20
2023-02-25T19:36:53.773Z,96.80
2023-02-25T19:41:00.919Z,97.00
2023-02-25T19:45:03.507Z,97.00
2023-02-25T19:49:05.381Z,97.10
2023-02-25T19:53:07.235Z,96.80
2023-02-25T19:57:11.505Z,98.20
2023-02-25T20:01:13.380Z,98.40
2023-02-25T20:05:15.474Z,99.90
2023-02-25T20:09:19.332Z,99.70
2023-02-25T20:13:21.252Z,99.90
2023-02-25T20:17:25.074Z,99.40
2023-02-25T20:21:28.985Z,99.40
2023-02-25T20:25:30.768Z,98.70
2023-02-25T20:29:32.585Z,99.90
2023-02-25T20:33:35.048Z,99.90
2023-02-25T20:37:43.100Z,99.30
2023-02-25T20:41:46.402Z,99.30
2023-02-25T20:45:48.406Z,99.40
2023-02-25T20:49:50.910Z,98.50
2023-02-25T20:53:53.196Z,97.90
2023-02-25T20:57:55.031Z,98.60
2023-02-25T21:01:57.820Z,97.60
2023-02-25T21:05:59.732Z,98.20
2023-02-25T21:10:01.594Z,96.80
2023-02-25T21:14:03.486Z,95.20
2023-02-25T21:18:05.393Z,95.50
2023-02-25T21:22:07.726Z,94.70
2023-02-25T21:26:11.236Z,95.50
2023-02-25T21:30:13.263Z,94.80
2023-02-25T21:34:15.175Z,94.90
2023-02-25T21:38:17.110Z,94.90
2023-02-25T21:42:18.979Z,95.80
2023-02-25T21:46:20.917Z,95.10
2023-02-25T21:50:22.783Z,94.60
2023-02-25T21:54:24.654Z,94.80
2023-02-25T21:58:26.472Z,94.50
2023-02-25T22:02:29.730Z,94.50
2023-02-25T22:06:32.819Z,95.00
2023-02-25T22:10:35.344Z,95.20
2023-02-25T22:14:37.152Z,95.80
2023-02-25T22:18:39.475Z,95.40
2023-02-25T22:22:41.304Z,95.10
2023-02-25T22:26:45.688Z,95.90
2023-02-25T22:30:47.593Z,94.80
2023-02-25T22:34:49.543Z,95.10
2023-02-25T22:38:51.349Z,94.80
2023-02-25T22:42:53.338Z,94.10
2023-02-25T22:46:55.332Z,93.40
2023-02-25T22:50:57.177Z,93.80
2023-02-25T22:54:59.026Z,93.90
2023-02-25T22:59:01.198Z,94.30
2023-02-25T23:03:03.593Z,94.60
2023-02-25T23:07:05.741Z,94.60
2023-02-25T23:11:21.041Z,94.20
2023-02-25T23:15:23.090Z,94.30
2023-02-25T23:19:24.918Z,94.70
2023-02-25T23:23:38.235Z,94.30
2023-02-25T23:27:40.107Z,94.50
2023-02-25T23:31:45.096Z,94.40
2023-02-25T23:35:49.655Z,93.80
2023-02-25T23:39:51.503Z,94.50
2023-02-25T23:44:00.518Z,95.20
2023-02-25T23:48:02.564Z,95.00
2023-02-25T23:52:04.413Z,95.40
2023-02-25T23:56:12.144Z,95.10
